METAR Data

Data at: 0112 UTC 23 Mar 2019

METAR for:KISP (Islip/Macarthur Arpt, NY, US)
Text:KISP 230056Z 29009G16KT 10SM FEW040 SCT095 07/M03 A2943 RMK AO2 PK WND 29027/0011 SLP964 T00671028
Temperature: 6.7°C ( 44°F)
Dewpoint: -2.8°C ( 27°F) [RH = 51%]
Pressure (altimeter):29.43 inches Hg ( 996.7 mb) [Sea level pressure: 996.4 mb]
Winds:from the WNW (290 degrees) at 10 MPH (9 knots; 4.6 m/s) gusting to 18 MPH (16 knots; 8.2 m/s)
Visibility:10 or more sm (16+ km)
Ceiling:at least 12,000 feet AGL
Clouds: few clouds at 4000 feet AGL, scattered clouds at 9500 feet AGL